Time;durP1;ratioP1;P1;durP2;ratioP2;P2;SDS_P1;SDS_P2;PMS_P1;PMS_P2;Temp;Humidity;BMP_temperature;BMP_pressure;BME280_temperature;BME280_humidity;BME280_pressure;Samples;Min_cycle;Max_cycle;Signal;HPM_P1;HPM_P2
2022/10/14 00:02:02;;;;;;;;;;;;;;;-144.99;100.00;52291.16;5034547;28;19933;-77
2022/10/14 00:04:29;;;;;;;;;;;;;;;-144.99;100.00;52368.59;5034972;28;19936;-82
2022/10/14 00:06:56;;;;;;;;;;;;;;;-144.99;100.00;52309.50;5041079;28;19928;-82
2022/10/14 00:09:23;;;;;;;;;;;;;;;-144.99;100.00;52327.84;5058267;28;19925;-86
2022/10/14 00:11:49;;;;;;;;;;;;;;;-144.99;100.00;52311.53;5042450;28;19994;-80
2022/10/14 00:14:19;;;;;;;;;;;;;;;-144.99;100.00;52297.25;5031072;28;19953;-82
2022/10/14 00:16:47;;;;;;;;;;;;;;;-144.99;100.00;52323.75;5042593;28;20299;-80
2022/10/14 00:19:14;;;;;;;;;;;;;;;-144.99;100.00;52352.28;5032027;28;19925;-73
2022/10/14 00:21:43;;;;;;;;;;;;;;;-144.99;100.00;52321.72;5022303;28;19935;-73
2022/10/14 00:24:11;;;;;;;;;;;;;;;-144.99;100.00;52321.72;5028691;28;19925;-71
2022/10/14 00:26:38;;;;;;;;;;;;;;;-144.99;100.00;52321.72;5029191;28;19929;-75
2022/10/14 00:29:05;;;;;;;;;;;;;;;-144.99;100.00;52305.41;5029190;28;19925;-75
2022/10/14 00:31:33;;;;;;;;;;;;;;;-144.99;100.00;52325.81;5028923;28;20020;-73
2022/10/14 00:34:00;;;;;;;;;;;;;;;-144.99;100.00;52317.66;5028835;28;19926;-74
2022/10/14 00:36:27;;;;;;;;;;;;;;;-144.99;100.00;52333.94;5029536;28;20302;-73
2022/10/14 00:38:54;;;;;;;;;;;;;;;-144.99;100.00;52358.41;5026617;28;19941;-72
2022/10/14 00:41:25;;;;;;;;;;;;;;;-144.99;100.00;52319.69;5020648;28;19925;-74
2022/10/14 00:43:56;;;;;;;;;;;;;;;-144.99;100.00;52360.44;5028334;28;19929;-72
2022/10/14 00:46:23;;;;;;;;;;;;;;;-144.99;100.00;52325.81;5028230;28;19932;-72
2022/10/14 00:48:51;;;;;;;;;;;;;;;-144.99;100.00;52313.56;5029941;28;20030;-71
2022/10/14 00:51:18;;;;;;;;;;;;;;;-144.99;100.00;52358.41;5029995;28;19952;-70
2022/10/14 00:53:45;;;;;;;;;;;;;;;-144.99;100.00;52350.25;5017963;28;19937;-72
2022/10/14 00:56:13;;;;;;;;;;;;;;;-144.99;100.00;52340.06;5028478;28;19929;-73
2022/10/14 00:58:39;;;;;;;;;;;;;;;-144.99;100.00;52348.22;5028812;28;19925;-72
2022/10/14 01:01:06;;;;;;;;;;;;;;;-144.99;100.00;52362.50;5022444;28;19934;-72
2022/10/14 01:03:33;;;;;;;;;;;;;;;-144.99;100.00;52319.69;5027162;28;20382;-70
2022/10/14 01:06:04;;;;;;;;;;;;;;;-144.99;100.00;52329.88;5030054;28;19929;-71
2022/10/14 01:08:32;;;;;;;;;;;;;;;-144.99;100.00;52333.94;5032432;28;19985;-71
2022/10/14 01:11:02;;;;;;;;;;;;;;;-144.99;100.00;52325.81;5031322;28;19964;-75
2022/10/14 01:13:31;;;;;;;;;;;;;;;-144.99;100.00;52333.94;5023139;28;20361;-76
2022/10/14 01:16:04;;;;;;;;;;;;;;;-144.99;100.00;52327.84;5022693;28;19925;-75
2022/10/14 01:18:39;;;;;;;;;;;;;;;-144.99;100.00;52338.03;5029326;28;20011;-75
2022/10/14 01:21:09;;;;;;;;;;;;;;;-144.99;100.00;52317.66;5033564;28;19929;-73
2022/10/14 01:23:55;;;;;;;;;;;;;;;-144.99;100.00;52333.94;5026693;28;19964;-76
2022/10/14 01:26:29;;;;;;;;;;;;;;;-144.99;100.00;52338.03;5029780;28;19939;-75
2022/10/14 01:29:05;;;;;;;;;;;;;;;-144.99;100.00;52319.69;5028417;28;19935;-76
2022/10/14 01:31:35;;;;;;;;;;;;;;;-144.99;100.00;52354.34;5027861;28;19929;-77
2022/10/14 01:34:04;;;;;;;;;;;;;;;-144.99;100.00;52354.34;5035938;28;20019;-79
2022/10/14 01:36:33;;;;;;;;;;;;;;;-144.99;100.00;52358.41;5021759;28;20383;-78
2022/10/14 01:39:01;;;;;;;;;;;;;;;-144.99;100.00;52358.41;5031111;28;19925;-77
2022/10/14 01:41:29;;;;;;;;;;;;;;;-144.99;100.00;52342.09;5029250;28;19932;-77
2022/10/14 01:43:58;;;;;;;;;;;;;;;-144.99;100.00;52346.19;5029081;28;20055;-80
2022/10/14 01:46:25;;;;;;;;;;;;;;;-144.99;100.00;52354.34;5029453;28;19939;-76
2022/10/14 01:48:56;;;;;;;;;;;;;;;-144.99;100.00;52350.25;5029391;28;20019;-74
2022/10/14 01:51:27;;;;;;;;;;;;;;;-144.99;100.00;52348.22;5030025;28;19976;-73
2022/10/14 01:53:56;;;;;;;;;;;;;;;-144.99;100.00;52321.72;5029439;28;19980;-74
2022/10/14 01:56:23;;;;;;;;;;;;;;;-144.99;100.00;52346.19;5029877;28;19966;-75
2022/10/14 01:58:50;;;;;;;;;;;;;;;-144.99;100.00;52329.88;5023591;28;19932;-75
2022/10/14 02:01:17;;;;;;;;;;;;;;;-144.99;100.00;52329.88;5019556;28;19936;-77
2022/10/14 02:03:44;;;;;;;;;;;;;;;-144.99;100.00;52323.75;5025776;28;20436;-76
2022/10/14 02:06:15;;;;;;;;;;;;;;;-144.99;100.00;52305.41;5031805;28;19964;-76
2022/10/14 02:08:46;;;;;;;;;;;;;;;-144.99;100.00;52346.19;5042488;28;19937;-76
2022/10/14 02:11:14;;;;;;;;;;;;;;;-144.99;100.00;52333.94;5041348;28;20009;-76
2022/10/14 02:13:46;;;;;;;;;;;;;;;-144.99;100.00;52329.88;5028135;28;19925;-76
2022/10/14 02:16:17;;;;;;;;;;;;;;;-144.99;100.00;52346.19;5029033;28;19925;-76
2022/10/14 02:18:49;;;;;;;;;;;;;;;-144.99;100.00;52329.88;5022148;28;20016;-79
2022/10/14 02:21:19;;;;;;;;;;;;;;;-144.99;100.00;52342.09;5026834;28;20342;-78
2022/10/14 02:23:47;;;;;;;;;;;;;;;-144.99;100.00;52358.41;5026409;28;20290;-76
2022/10/14 02:26:15;;;;;;;;;;;;;;;-144.99;100.00;52370.63;5028506;28;20401;-76
2022/10/14 02:28:43;;;;;;;;;;;;;;;-144.99;100.00;52358.41;5028266;28;20394;-76
2022/10/14 02:31:12;;;;;;;;;;;;;;;-144.99;100.00;52333.94;5025505;28;19925;-76
2022/10/14 02:33:40;;;;;;;;;;;;;;;-144.99;100.00;52280.97;5020014;28;19939;-75
2022/10/14 02:36:07;;;;;;;;;;;;;;;-144.99;100.00;52346.19;5028411;28;19929;-78
2022/10/14 02:38:35;;;;;;;;;;;;;;;-144.99;100.00;52323.75;5026213;28;19925;-76
2022/10/14 02:41:04;;;;;;;;;;;;;;;-144.99;100.00;52342.09;5031567;28;19952;-77
2022/10/14 02:43:30;;;;;;;;;;;;;;;-144.99;100.00;52317.66;5026759;28;20027;-75
2022/10/14 02:45:58;;;;;;;;;;;;;;;-144.99;100.00;52356.38;5030274;28;19963;-76
2022/10/14 02:48:24;;;;;;;;;;;;;;;-144.99;100.00;52333.94;5029036;28;19932;-76
2022/10/14 02:50:51;;;;;;;;;;;;;;;-144.99;100.00;52358.41;5033894;28;19936;-75
2022/10/14 02:53:17;;;;;;;;;;;;;;;-144.99;100.00;52327.84;5026592;28;19939;-75
2022/10/14 02:55:45;;;;;;;;;;;;;;;-144.99;100.00;52346.19;5027902;28;19932;-76
2022/10/14 02:58:11;;;;;;;;;;;;;;;-144.99;100.00;52362.50;5028329;28;20123;-76
2022/10/14 03:00:38;;;;;;;;;;;;;;;-144.99;100.00;52366.56;5022922;28;19933;-74
2022/10/14 03:03:04;;;;;;;;;;;;;;;-144.99;100.00;52313.56;5017617;28;19948;-78
2022/10/14 03:05:30;;;;;;;;;;;;;;;-144.99;100.00;52325.81;5029323;28;20019;-79
2022/10/14 03:07:57;;;;;;;;;;;;;;;-144.99;100.00;52338.03;5044970;28;20005;-78
2022/10/14 03:10:23;;;;;;;;;;;;;;;-144.99;100.00;52321.72;5053406;28;19944;-78
2022/10/14 03:12:51;;;;;;;;;;;;;;;-144.99;100.00;52354.34;5031759;28;19933;-78
2022/10/14 03:15:17;;;;;;;;;;;;;;;-144.99;100.00;52344.16;5031249;28;20399;-70
2022/10/14 03:17:44;;;;;;;;;;;;;;;-144.99;100.00;52325.81;5031295;28;19940;-70
2022/10/14 03:20:11;;;;;;;;;;;;;;;-144.99;100.00;52344.16;5030365;28;19935;-69
2022/10/14 03:22:37;;;;;;;;;;;;;;;-144.99;100.00;52329.88;5026909;28;19955;-72
2022/10/14 03:25:04;;;;;;;;;;;;;;;-144.99;100.00;52333.94;5030862;28;19929;-70
2022/10/14 03:27:31;;;;;;;;;;;;;;;-144.99;100.00;52338.03;5031038;28;19929;-70
2022/10/14 03:29:59;;;;;;;;;;;;;;;-144.99;100.00;52338.03;5031272;28;19925;-74
2022/10/14 03:32:25;;;;;;;;;;;;;;;-144.99;100.00;52333.94;5022508;28;19925;-75
2022/10/14 03:34:51;;;;;;;;;;;;;;;-144.99;100.00;52354.34;5023898;28;19925;-74
2022/10/14 03:37:18;;;;;;;;;;;;;;;-144.99;100.00;52350.25;5031374;28;19936;-74
2022/10/14 03:39:44;;;;;;;;;;;;;;;-144.99;100.00;52321.72;5028681;28;20000;-73
2022/10/14 03:42:11;;;;;;;;;;;;;;;-144.99;100.00;52358.41;5032833;28;20015;-73
2022/10/14 03:44:37;;;;;;;;;;;;;;;-144.99;100.00;52338.03;5021232;28;20032;-71
2022/10/14 03:47:05;;;;;;;;;;;;;;;-144.99;100.00;52344.16;5015304;28;19972;-71
2022/10/14 03:49:31;;;;;;;;;;;;;;;-144.99;100.00;52362.50;5029347;28;20346;-67
2022/10/14 03:51:58;;;;;;;;;;;;;;;-144.99;100.00;52350.25;5026626;28;19935;-68
2022/10/14 03:54:24;;;;;;;;;;;;;;;-144.99;100.00;52301.34;5016609;28;20009;-70
2022/10/14 03:56:51;;;;;;;;;;;;;;;-144.99;100.00;52342.09;5026422;28;20016;-66
2022/10/14 03:59:17;;;;;;;;;;;;;;;-144.99;100.00;52342.09;5029636;28;20266;-66
2022/10/14 04:01:43;;;;;;;;;;;;;;;-144.99;100.00;52342.09;5029114;28;19951;-67
2022/10/14 04:04:11;;;;;;;;;;;;;;;-144.99;100.00;52331.91;5027584;28;19936;-65
2022/10/14 04:06:38;;;;;;;;;;;;;;;-144.99;100.00;52370.63;5029094;28;19925;-65
2022/10/14 04:09:04;;;;;;;;;;;;;;;-144.99;100.00;52327.84;5028482;28;19929;-67
2022/10/14 04:11:31;;;;;;;;;;;;;;;-144.99;100.00;52348.22;5030272;28;20005;-67
2022/10/14 04:13:57;;;;;;;;;;;;;;;-144.99;100.00;52346.19;5023348;28;20402;-67
2022/10/14 04:16:24;;;;;;;;;;;;;;;-144.99;100.00;52378.78;5018546;28;19925;-76
2022/10/14 04:18:50;;;;;;;;;;;;;;;-144.99;100.00;52329.88;5029196;28;20341;-73
2022/10/14 04:21:18;;;;;;;;;;;;;;;-144.99;100.00;52376.75;5029359;28;20449;-72
2022/10/14 04:23:45;;;;;;;;;;;;;;;-144.99;100.00;52317.66;5028209;28;20313;-72
2022/10/14 04:26:11;;;;;;;;;;;;;;;-144.99;100.00;52378.78;5024490;28;19925;-72
2022/10/14 04:28:38;;;;;;;;;;;;;;;-144.99;100.00;52323.75;5029646;28;20263;-73
2022/10/14 04:31:05;;;;;;;;;;;;;;;-144.99;100.00;52329.88;5029603;28;19948;-72
2022/10/14 04:33:31;;;;;;;;;;;;;;;-144.99;100.00;52378.78;5028784;28;19925;-72
2022/10/14 04:35:58;;;;;;;;;;;;;;;-144.99;100.00;52329.88;5031239;28;20342;-73
2022/10/14 04:38:26;;;;;;;;;;;;;;;-144.99;100.00;52321.72;5016264;28;19925;-74
2022/10/14 04:40:53;;;;;;;;;;;;;;;-144.99;100.00;52352.28;5028549;28;19933;-73
2022/10/14 04:43:19;;;;;;;;;;;;;;;-144.99;100.00;52344.16;5028423;28;20219;-73
2022/10/14 04:45:46;;;;;;;;;;;;;;;-144.99;100.00;52382.88;5020002;28;20417;-72
2022/10/14 04:48:12;;;;;;;;;;;;;;;-144.99;100.00;52325.81;5026810;28;20310;-74
2022/10/14 04:50:39;;;;;;;;;;;;;;;-144.99;100.00;52338.03;5029046;28;19933;-66
2022/10/14 04:53:05;;;;;;;;;;;;;;;-144.99;100.00;52327.84;5026548;28;19929;-64
2022/10/14 04:55:33;;;;;;;;;;;;;;;-144.99;100.00;52354.34;5030915;28;19925;-63
2022/10/14 04:58:00;;;;;;;;;;;;;;;-144.99;100.00;52354.34;5028379;28;20165;-64
2022/10/14 05:00:26;;;;;;;;;;;;;;;-144.99;100.00;52301.34;5025936;28;19925;-64
2022/10/14 05:02:52;;;;;;;;;;;;;;;-144.99;100.00;52348.22;5027771;28;20099;-65
2022/10/14 05:05:19;;;;;;;;;;;;;;;-144.99;100.00;52386.94;5024473;28;20020;-64
2022/10/14 05:07:58;;;;;;;;;;;;;;;-144.99;100.00;52358.41;4754937;28;10000519;-76
2022/10/14 05:10:24;;;;;;;;;;;;;;;-144.99;100.00;52362.50;5024289;28;19980;-75
2022/10/14 05:12:52;;;;;;;;;;;;;;;-144.99;100.00;52338.03;5028317;28;20028;-76
2022/10/14 05:15:19;;;;;;;;;;;;;;;-144.99;100.00;52338.03;5021675;28;20294;-75
2022/10/14 05:17:45;;;;;;;;;;;;;;;-144.99;100.00;52348.22;5020393;28;19930;-77
2022/10/14 05:20:12;;;;;;;;;;;;;;;-144.99;100.00;52376.75;5034368;28;20388;-75
2022/10/14 05:22:38;;;;;;;;;;;;;;;-144.99;100.00;52354.34;5029567;28;19929;-76
2022/10/14 05:25:05;;;;;;;;;;;;;;;-144.99;100.00;52338.03;5020696;28;19941;-76
2022/10/14 05:27:31;;;;;;;;;;;;;;;-144.99;100.00;52333.94;5021322;28;20023;-76
2022/10/14 05:29:59;;;;;;;;;;;;;;;-144.99;100.00;52321.72;5025034;28;19951;-77
2022/10/14 05:32:25;;;;;;;;;;;;;;;-144.99;100.00;52372.69;5019887;28;20019;-76
2022/10/14 05:34:52;;;;;;;;;;;;;;;-144.99;100.00;52301.34;5024705;28;20418;-76
2022/10/14 05:37:18;;;;;;;;;;;;;;;-144.99;100.00;52325.81;5024761;28;19944;-77
2022/10/14 05:39:45;;;;;;;;;;;;;;;-144.99;100.00;52362.50;5024326;28;20412;-76
2022/10/14 05:42:11;;;;;;;;;;;;;;;-144.99;100.00;52342.09;5018300;28;19936;-77
2022/10/14 05:44:38;;;;;;;;;;;;;;;-144.99;100.00;52358.41;5024061;28;19933;-76
2022/10/14 05:47:06;;;;;;;;;;;;;;;-144.99;100.00;52354.34;5025192;28;19929;-76
2022/10/14 05:49:32;;;;;;;;;;;;;;;-144.99;100.00;52346.19;5024302;28;20401;-77
2022/10/14 05:51:58;;;;;;;;;;;;;;;-144.99;100.00;52342.09;5023429;28;19929;-77
2022/10/14 05:54:25;;;;;;;;;;;;;;;-144.99;100.00;52352.28;5023572;28;19939;-77
2022/10/14 05:56:52;;;;;;;;;;;;;;;-144.99;100.00;52350.25;5024673;28;20424;-75
2022/10/14 05:59:18;;;;;;;;;;;;;;;-144.99;100.00;52329.88;5024839;28;19929;-76
2022/10/14 06:01:45;;;;;;;;;;;;;;;-144.99;100.00;52342.09;5017792;28;19961;-75
2022/10/14 06:04:16;;;;;;;;;;;;;;;-144.99;100.00;52366.56;5014951;28;19929;-76
2022/10/14 06:06:43;;;;;;;;;;;;;;;-144.99;100.00;52354.34;5012997;28;20044;-76
2022/10/14 06:09:09;;;;;;;;;;;;;;;-144.99;100.00;52352.28;5022144;28;20028;-76
2022/10/14 06:11:36;;;;;;;;;;;;;;;-144.99;100.00;52342.09;5021993;28;19961;-76
2022/10/14 06:14:02;;;;;;;;;;;;;;;-144.99;100.00;52374.72;5013819;28;19969;-76
2022/10/14 06:16:28;;;;;;;;;;;;;;;-144.99;100.00;52382.88;5011352;28;19929;-75
2022/10/14 06:18:55;;;;;;;;;;;;;;;-144.99;100.00;52358.41;5011545;28;19933;-76
2022/10/14 06:21:23;;;;;;;;;;;;;;;-144.99;100.00;52354.34;5011254;28;19954;-76
2022/10/14 06:23:49;;;;;;;;;;;;;;;-144.99;100.00;52360.44;5009803;28;19933;-75
2022/10/14 06:26:15;;;;;;;;;;;;;;;-144.99;100.00;52366.56;5012785;28;19947;-75
2022/10/14 06:28:42;;;;;;;;;;;;;;;-144.99;100.00;52366.56;5012501;28;20473;-75
2022/10/14 06:31:08;;;;;;;;;;;;;;;-144.99;100.00;52346.19;5026372;28;20418;-75
2022/10/14 06:33:35;;;;;;;;;;;;;;;-144.99;100.00;52325.81;5021301;28;19997;-76
2022/10/14 06:36:02;;;;;;;;;;;;;;;-144.99;100.00;52358.41;5025372;28;19925;-76
2022/10/14 06:38:29;;;;;;;;;;;;;;;-144.99;100.00;52342.09;5023712;28;19929;-76
2022/10/14 06:40:56;;;;;;;;;;;;;;;-144.99;100.00;52391.03;5025962;28;19929;-77
2022/10/14 06:43:22;;;;;;;;;;;;;;;-144.99;100.00;52364.53;5034214;28;19925;-77
2022/10/14 06:45:49;;;;;;;;;;;;;;;-144.99;100.00;52350.25;5026551;28;20008;-77
2022/10/14 06:48:15;;;;;;;;;;;;;;;-144.99;100.00;52370.63;5028692;28;19929;-78
2022/10/14 06:50:42;;;;;;;;;;;;;;;-144.99;100.00;52391.03;5028456;28;19994;-77
2022/10/14 06:53:09;;;;;;;;;;;;;;;-144.99;100.00;52325.81;5031146;28;19951;-78
2022/10/14 06:55:37;;;;;;;;;;;;;;;-144.99;100.00;52350.25;5029345;28;19936;-78
2022/10/14 06:58:03;;;;;;;;;;;;;;;-144.99;100.00;52354.34;5030035;28;19951;-77
2022/10/14 07:00:30;;;;;;;;;;;;;;;-144.99;100.00;52350.25;5024639;28;19935;-77
2022/10/14 07:02:58;;;;;;;;;;;;;;;-144.99;100.00;52342.09;5024833;28;20023;-77
2022/10/14 07:05:27;;;;;;;;;;;;;;;-144.99;100.00;52366.56;4759222;28;10000233;-78
2022/10/14 07:07:53;;;;;;;;;;;;;;;-144.99;100.00;52370.63;5029678;28;20345;-77
2022/10/14 07:10:20;;;;;;;;;;;;;;;-144.99;100.00;52344.16;5037754;28;19972;-79
2022/10/14 07:12:47;;;;;;;;;;;;;;;-144.99;100.00;52366.56;5040651;28;19952;-77
2022/10/14 07:15:14;;;;;;;;;;;;;;;-144.99;100.00;52370.63;5027388;28;19947;-77
2022/10/14 07:17:40;;;;;;;;;;;;;;;-144.99;100.00;52333.94;5028857;28;20282;-77
2022/10/14 07:20:07;;;;;;;;;;;;;;;-144.99;100.00;52342.09;5022613;28;19931;-78
2022/10/14 07:22:35;;;;;;;;;;;;;;;-144.99;100.00;52376.75;5023992;28;20397;-82
2022/10/14 07:25:01;;;;;;;;;;;;;;;-144.99;100.00;52340.06;5030222;28;20195;-78
2022/10/14 07:27:28;;;;;;;;;;;;;;;-144.99;100.00;52382.88;5030220;28;19929;-78
2022/10/14 07:29:56;;;;;;;;;;;;;;;-144.99;100.00;52386.94;5029424;28;19929;-82
2022/10/14 07:32:22;;;;;;;;;;;;;;;-144.99;100.00;52327.84;5019132;28;19930;-79
2022/10/14 07:34:49;;;;;;;;;;;;;;;-144.99;100.00;52415.47;5032273;28;19929;-81
2022/10/14 07:37:15;;;;;;;;;;;;;;;-144.99;100.00;52352.28;5029913;28;20032;-76
2022/10/14 07:39:41;;;;;;;;;;;;;;;-144.99;100.00;52372.69;5021352;28;19929;-77
2022/10/14 07:42:08;;;;;;;;;;;;;;;-144.99;100.00;52342.09;5026192;28;19974;-78
2022/10/14 07:44:35;;;;;;;;;;;;;;;-144.99;100.00;52360.44;5041307;28;19924;-78
2022/10/14 07:47:04;;;;;;;;;;;;;;;-144.99;100.00;52338.03;5033302;28;19940;-78
2022/10/14 07:49:31;;;;;;;;;;;;;;;-144.99;100.00;52362.50;5029667;28;19925;-80
2022/10/14 07:51:58;;;;;;;;;;;;;;;-144.99;100.00;52362.50;5029371;28;20016;-79
2022/10/14 07:54:26;;;;;;;;;;;;;;;-144.99;100.00;52325.81;5031044;28;20011;-78
2022/10/14 07:56:52;;;;;;;;;;;;;;;-144.99;100.00;52362.50;5030120;28;19983;-78
2022/10/14 07:59:20;;;;;;;;;;;;;;;-144.99;100.00;52378.78;5029216;28;19929;-80
2022/10/14 08:01:46;;;;;;;;;;;;;;;-144.99;100.00;52364.53;5029060;28;19929;-80
2022/10/14 08:04:14;;;;;;;;;;;;;;;-144.99;100.00;52358.41;5027168;28;19935;-79
2022/10/14 08:06:41;;;;;;;;;;;;;;;-144.99;100.00;52378.78;5031335;28;20336;-79
2022/10/14 08:09:08;;;;;;;;;;;;;;;-144.99;100.00;52354.34;5036875;28;19925;-79
2022/10/14 08:11:34;;;;;;;;;;;;;;;-144.99;100.00;52391.03;5041457;28;19925;-79
2022/10/14 08:14:01;;;;;;;;;;;;;;;-144.99;100.00;52350.25;5035008;28;19929;-79
2022/10/14 08:16:28;;;;;;;;;;;;;;;-144.99;100.00;52356.38;5028480;28;19929;-76
2022/10/14 08:18:55;;;;;;;;;;;;;;;-144.99;100.00;52305.41;5028278;28;19929;-77
2022/10/14 08:21:23;;;;;;;;;;;;;;;-144.99;100.00;52342.09;5028527;28;20429;-82
2022/10/14 08:23:50;;;;;;;;;;;;;;;-144.99;100.00;52372.69;5027338;28;19941;-77
2022/10/14 08:26:21;;;;;;;;;;;;;;;-144.99;100.00;52352.28;5028651;28;20004;-79
2022/10/14 08:28:47;;;;;;;;;;;;;;;-144.99;100.00;52319.69;5027931;28;19925;-76
2022/10/14 08:31:14;;;;;;;;;;;;;;;-144.99;100.00;52364.53;5026780;28;19929;-80
2022/10/14 08:33:40;;;;;;;;;;;;;;;-144.99;100.00;52360.44;5026643;28;20153;-78
2022/10/14 08:36:07;;;;;;;;;;;;;;;-144.99;100.00;52342.09;5020151;28;19936;-79
2022/10/14 08:38:35;;;;;;;;;;;;;;;-144.99;100.00;52340.06;5026134;28;19929;-76
2022/10/14 08:41:07;;;;;;;;;;;;;;;-144.99;100.00;52350.25;5025343;28;19929;-77
2022/10/14 08:43:36;;;;;;;;;;;;;;;-144.99;100.00;52342.09;5026795;28;19944;-76
2022/10/14 08:46:06;;;;;;;;;;;;;;;-144.99;100.00;52309.50;5028468;28;19940;-77
2022/10/14 08:48:34;;;;;;;;;;;;;;;-144.99;100.00;52303.38;5031162;28;19952;-79
2022/10/14 08:51:03;;;;;;;;;;;;;;;-144.99;100.00;52289.13;5026799;28;20369;-77
2022/10/14 08:53:33;;;;;;;;;;;;;;;-144.99;100.00;52325.81;5023428;28;19935;-84
2022/10/14 08:56:02;;;;;;;;;;;;;;;-144.99;100.00;52280.97;5027433;28;20297;-80
2022/10/14 08:58:31;;;;;;;;;;;;;;;-144.99;100.00;52268.72;5029272;28;19929;-81
2022/10/14 09:01:01;;;;;;;;;;;;;;;-144.99;100.00;52297.25;5028899;28;19933;-80
2022/10/14 09:03:32;;;;;;;;;;;;;;;-144.99;100.00;52333.94;5040304;28;20204;-77
2022/10/14 09:06:00;;;;;;;;;;;;;;;-144.99;100.00;52297.25;5040619;28;19955;-78
2022/10/14 09:08:29;;;;;;;;;;;;;;;-144.99;100.00;52325.81;5026830;28;20342;-77
2022/10/14 09:10:56;;;;;;;;;;;;;;;-144.99;100.00;52338.03;5029953;28;19937;-82
2022/10/14 09:13:28;;;;;;;;;;;;;;;-144.99;100.00;52327.84;5048551;28;19976;-83
2022/10/14 09:15:58;;;;;;;;;;;;;;;-144.99;100.00;52319.69;5040315;28;20051;-81
2022/10/14 09:18:27;;;;;;;;;;;;;;;-144.99;100.00;52362.50;5028548;28;20243;-77
2022/10/14 09:20:55;;;;;;;;;;;;;;;-144.99;100.00;52338.03;5027810;28;20393;-81
2022/10/14 09:23:22;;;;;;;;;;;;;;;-144.99;100.00;52333.94;5026312;28;19929;-80
2022/10/14 09:25:54;;;;;;;;;;;;;;;-144.99;100.00;52301.34;5027215;28;19933;-78
2022/10/14 09:28:21;;;;;;;;;;;;;;;-144.99;100.00;52344.16;5027593;28;20020;-79
2022/10/14 09:30:48;;;;;;;;;;;;;;;-144.99;100.00;52354.34;5026367;28;20305;-78
2022/10/14 09:33:18;;;;;;;;;;;;;;;-144.99;100.00;52260.56;5026740;28;19928;-76
2022/10/14 09:35:45;;;;;;;;;;;;;;;-144.99;99.95;52248.34;5028129;28;19929;-76
2022/10/14 09:38:12;;;;;;;;;;;;;;;-144.99;91.93;52223.88;5028184;28;20317;-79
2022/10/14 09:40:40;;;;;;;;;;;;;;;-144.99;80.79;52236.13;5027083;28;20247;-78
2022/10/14 09:43:14;;;;;;;;;;;;;;;-144.99;77.09;52260.56;5026785;28;19925;-76
2022/10/14 09:45:53;;;;;;;;;;;;;;;-144.99;77.03;52329.88;5027633;28;19939;-78
2022/10/14 09:48:28;;;;;;;;;;;;;;;-144.99;80.05;52272.81;5033356;28;20009;-80
2022/10/14 09:50:56;;;;;;;;;;;;;;;-144.99;83.44;52362.50;5026919;28;19929;-82
2022/10/14 09:53:27;;;;;;;;;;;;;;;-144.99;85.96;52313.56;5026398;28;19947;-80
2022/10/14 09:55:55;;;;;;;;;;;;;;;-144.99;87.74;52325.81;5027099;28;20040;-83
2022/10/14 09:58:26;;;;;;;;;;;;;;;-144.99;89.23;52317.66;5027592;28;19925;-78
2022/10/14 10:00:57;;;;;;;;;;;;;;;-144.99;91.83;52321.72;5023275;28;19935;-79
2022/10/14 10:03:24;;;;;;;;;;;;;;;-144.99;94.08;52358.41;5027230;28;19971;-80
2022/10/14 10:05:58;;;;;;;;;;;;;;;-144.99;95.52;52346.19;5027581;28;19925;-78
2022/10/14 10:08:25;;;;;;;;;;;;;;;-144.99;96.35;52321.72;5026034;28;19932;-82
2022/10/14 10:11:00;;;;;;;;;;;;;;;-144.99;97.10;52348.22;5026133;28;19929;-82
2022/10/14 10:13:31;;;;;;;;;;;;;;;-144.99;98.46;52354.34;5046910;28;19929;-83
2022/10/14 10:15:59;;;;;;;;;;;;;;;-144.99;98.42;52364.53;5048447;28;19956;-79
2022/10/14 10:18:26;;;;;;;;;;;;;;;-144.99;99.87;52370.63;5026562;28;19928;-79
2022/10/14 10:21:06;;;;;;;;;;;;;;;-144.99;99.83;52391.03;5034401;28;19925;-81
2022/10/14 10:23:34;;;;;;;;;;;;;;;-144.99;100.00;52346.19;5025145;28;19924;-82
2022/10/14 10:26:15;;;;;;;;;;;;;;;-144.99;100.00;52370.63;5027810;28;19929;-79
2022/10/14 10:28:44;;;;;;;;;;;;;;;-144.99;100.00;52378.78;5022918;28;20313;-81
2022/10/14 10:31:21;;;;;;;;;;;;;;;-144.99;100.00;52378.78;5024294;28;19933;-85
2022/10/14 10:33:53;;;;;;;;;;;;;;;-144.99;100.00;52366.56;5025984;28;19929;-82
2022/10/14 10:36:22;;;;;;;;;;;;;;;-144.99;100.00;52352.28;5026828;28;19932;-83
2022/10/14 10:38:55;;;;;;;;;;;;;;;-144.99;100.00;52364.53;5026034;28;19929;-79
2022/10/14 10:41:28;;;;;;;;;;;;;;;-144.99;100.00;52350.25;5027873;28;20020;-82
2022/10/14 10:44:02;;;;;;;;;;;;;;;-144.99;100.00;52358.41;5026651;28;20394;-78
2022/10/14 10:46:50;;;;;;;;;;;;;;;-144.99;99.85;52362.50;5026999;28;19925;-77
2022/10/14 10:49:22;;;;;;;;;;;;;;;-144.99;100.00;52317.66;5026843;28;19959;-77
2022/10/14 10:51:52;;;;;;;;;;;;;;;-144.99;100.00;52333.94;5026685;28;19939;-78
2022/10/14 10:54:24;;;;;;;;;;;;;;;-144.99;100.00;52362.50;5026990;28;20027;-79
2022/10/14 10:56:52;;;;;;;;;;;;;;;-144.99;100.00;52368.59;5028253;28;19940;-78
2022/10/14 10:59:37;;;;;;;;;;;;;;;-144.99;100.00;52370.63;5028439;28;20242;-78
2022/10/14 11:02:27;;;;;;;;;;;;;;;-144.99;100.00;52378.78;5017248;28;19925;-78
2022/10/14 11:04:59;;;;;;;;;;;;;;;-144.99;100.00;52358.41;5016549;28;19964;-77
2022/10/14 11:13:22;;;;;;;;;;;;;;;-144.99;97.00;52346.19;5006270;28;19945;-85
2022/10/14 11:15:51;;;;;;;;;;;;;;;-144.99;96.37;52356.38;5003688;28;19965;-86
2022/10/14 11:18:24;;;;;;;;;;;;;;;-144.99;94.93;52370.63;5006405;28;20123;-78
2022/10/14 11:20:57;;;;;;;;;;;;;;;-144.99;94.96;52374.72;5028508;28;20350;-80
2022/10/14 11:23:44;;;;;;;;;;;;;;;-144.99;95.25;52346.19;5022540;28;19929;-76
2022/10/14 11:26:20;;;;;;;;;;;;;;;-144.99;94.86;52370.63;5022257;28;19929;-84
2022/10/14 11:28:51;;;;;;;;;;;;;;;-144.99;94.57;52372.69;5026308;28;20131;-78
2022/10/14 11:31:26;;;;;;;;;;;;;;;-144.99;93.49;52362.50;5020577;28;19995;-80
2022/10/14 11:34:03;;;;;;;;;;;;;;;-144.99;92.27;52366.56;5027095;28;20139;-77
2022/10/14 11:36:35;;;;;;;;;;;;;;;-144.99;92.45;52360.44;5022260;28;19933;-77
2022/10/14 11:39:22;;;;;;;;;;;;;;;-144.99;92.75;52380.84;5028879;28;19937;-83
2022/10/14 11:42:00;;;;;;;;;;;;;;;-144.99;90.86;52366.56;5017869;28;19969;-80
2022/10/14 11:44:31;;;;;;;;;;;;;;;-144.99;89.35;52319.69;5030414;28;19947;-81
2022/10/14 11:47:00;;;;;;;;;;;;;;;-144.99;89.17;52362.50;5021812;28;20286;-80
2022/10/14 11:49:29;;;;;;;;;;;;;;;-144.99;88.39;52340.06;5041110;28;19948;-78
2022/10/14 11:51:58;;;;;;;;;;;;;;;-144.99;86.36;52360.44;5029830;28;19929;-81
2022/10/14 11:54:28;;;;;;;;;;;;;;;-144.99;84.66;52338.03;5025056;28;20145;-79
2022/10/14 11:56:57;;;;;;;;;;;;;;;-144.99;82.33;52223.88;5030037;28;19925;-77
2022/10/14 11:59:41;;;;;;;;;;;;;;;-144.99;75.63;52248.34;5017583;28;19934;-82
2022/10/14 12:02:24;;;;;;;;;;;;;;;-144.99;69.39;52152.56;5017549;28;19925;-78
2022/10/14 12:04:53;;;;;;;;;;;;;;;-144.99;63.19;52085.31;5027819;28;19979;-77
2022/10/14 12:07:24;;;;;;;;;;;;;;;-144.99;56.61;52191.28;5035746;28;19925;-80
2022/10/14 12:09:53;;;;;;;;;;;;;;;-144.99;51.52;52119.94;5030983;28;19939;-75
2022/10/14 12:12:22;;;;;;;;;;;;;;;-144.99;49.58;52215.75;5034872;28;20208;-85
2022/10/14 12:14:51;;;;;;;;;;;;;;;-144.99;50.79;52183.13;5042551;28;19977;-87
2022/10/14 12:17:20;;;;;;;;;;;;;;;-144.99;51.94;52260.56;5047756;28;19938;-79
2022/10/14 12:19:47;;;;;;;;;;;;;;;-144.99;54.27;52154.59;5030416;28;20395;-77
2022/10/14 12:22:16;;;;;;;;;;;;;;;-144.99;54.12;52276.88;5030204;28;19925;-83
2022/10/14 12:24:47;;;;;;;;;;;;;;;-144.99;55.33;52285.03;5031387;28;19928;-76
2022/10/14 12:27:15;;;;;;;;;;;;;;;-144.99;53.91;52203.50;5030674;28;19929;-76
2022/10/14 12:29:42;;;;;;;;;;;;;;;-144.99;52.02;52219.81;5030526;28;19929;-77
2022/10/14 12:32:19;;;;;;;;;;;;;;;-144.99;52.64;52285.03;5029872;28;19925;-80